sensor_id;sensor_type;location;lat;lon;timestamp;P1;durP1;ratioP1;P2;durP2;ratioP2
37305;SDS011;23193;42.656;21.170;2024-02-26T00:01:50;14.52;;;7.72;;
37305;SDS011;23193;42.656;21.170;2024-02-26T00:04:17;15.50;;;8.45;;
37305;SDS011;23193;42.656;21.170;2024-02-26T00:06:44;16.83;;;9.23;;
37305;SDS011;23193;42.656;21.170;2024-02-26T00:09:12;18.90;;;9.88;;
37305;SDS011;23193;42.656;21.170;2024-02-26T00:11:39;20.55;;;9.07;;
37305;SDS011;23193;42.656;21.170;2024-02-26T00:14:06;28.55;;;15.48;;
37305;SDS011;23193;42.656;21.170;2024-02-26T00:16:33;22.55;;;12.10;;
37305;SDS011;23193;42.656;21.170;2024-02-26T00:19:00;22.88;;;11.20;;
37305;SDS011;23193;42.656;21.170;2024-02-26T00:21:27;24.30;;;11.30;;
37305;SDS011;23193;42.656;21.170;2024-02-26T00:23:54;20.73;;;12.45;;
37305;SDS011;23193;42.656;21.170;2024-02-26T00:26:22;27.73;;;11.95;;
37305;SDS011;23193;42.656;21.170;2024-02-26T00:28:49;28.05;;;12.10;;
37305;SDS011;23193;42.656;21.170;2024-02-26T00:31:15;30.42;;;13.38;;
37305;SDS011;23193;42.656;21.170;2024-02-26T00:33:43;26.45;;;12.73;;
37305;SDS011;23193;42.656;21.170;2024-02-26T00:36:10;23.00;;;12.98;;
37305;SDS011;23193;42.656;21.170;2024-02-26T00:38:37;27.48;;;13.02;;
37305;SDS011;23193;42.656;21.170;2024-02-26T00:41:04;25.58;;;13.35;;
37305;SDS011;23193;42.656;21.170;2024-02-26T00:43:31;22.95;;;12.20;;
37305;SDS011;23193;42.656;21.170;2024-02-26T00:45:58;18.63;;;12.05;;
37305;SDS011;23193;42.656;21.170;2024-02-26T00:48:26;24.15;;;13.02;;
37305;SDS011;23193;42.656;21.170;2024-02-26T00:50:53;19.58;;;11.18;;
37305;SDS011;23193;42.656;21.170;2024-02-26T00:53:20;15.85;;;8.10;;
37305;SDS011;23193;42.656;21.170;2024-02-26T00:55:47;19.98;;;9.85;;
37305;SDS011;23193;42.656;21.170;2024-02-26T00:58:14;12.27;;;6.93;;
37305;SDS011;23193;42.656;21.170;2024-02-26T01:00:41;17.40;;;8.55;;
37305;SDS011;23193;42.656;21.170;2024-02-26T01:03:08;10.27;;;6.07;;
37305;SDS011;23193;42.656;21.170;2024-02-26T01:05:37;10.48;;;5.85;;
37305;SDS011;23193;42.656;21.170;2024-02-26T01:08:05;8.30;;;5.72;;
37305;SDS011;23193;42.656;21.170;2024-02-26T01:10:32;16.58;;;6.50;;
37305;SDS011;23193;42.656;21.170;2024-02-26T01:12:59;13.57;;;6.25;;
37305;SDS011;23193;42.656;21.170;2024-02-26T01:15:26;12.20;;;7.32;;
37305;SDS011;23193;42.656;21.170;2024-02-26T01:17:53;14.13;;;6.18;;
37305;SDS011;23193;42.656;21.170;2024-02-26T01:20:21;15.82;;;6.85;;
37305;SDS011;23193;42.656;21.170;2024-02-26T01:22:48;14.55;;;6.25;;
37305;SDS011;23193;42.656;21.170;2024-02-26T01:25:15;10.05;;;6.25;;
37305;SDS011;23193;42.656;21.170;2024-02-26T01:27:42;8.07;;;5.30;;
37305;SDS011;23193;42.656;21.170;2024-02-26T01:30:10;10.10;;;5.43;;
37305;SDS011;23193;42.656;21.170;2024-02-26T01:32:38;7.82;;;5.55;;
37305;SDS011;23193;42.656;21.170;2024-02-26T01:35:05;12.32;;;5.05;;
37305;SDS011;23193;42.656;21.170;2024-02-26T01:37:37;13.90;;;6.55;;
37305;SDS011;23193;42.656;21.170;2024-02-26T01:40:05;9.93;;;5.93;;
37305;SDS011;23193;42.656;21.170;2024-02-26T01:42:32;10.93;;;5.25;;
37305;SDS011;23193;42.656;21.170;2024-02-26T01:44:59;8.60;;;4.82;;
37305;SDS011;23193;42.656;21.170;2024-02-26T01:47:26;9.88;;;5.10;;
37305;SDS011;23193;42.656;21.170;2024-02-26T01:49:54;10.10;;;5.18;;
37305;SDS011;23193;42.656;21.170;2024-02-26T01:52:22;11.65;;;5.07;;
37305;SDS011;23193;42.656;21.170;2024-02-26T01:54:49;11.75;;;5.40;;
37305;SDS011;23193;42.656;21.170;2024-02-26T01:57:16;7.68;;;4.72;;
37305;SDS011;23193;42.656;21.170;2024-02-26T01:59:44;10.60;;;4.90;;
37305;SDS011;23193;42.656;21.170;2024-02-26T02:02:11;12.95;;;5.00;;
37305;SDS011;23193;42.656;21.170;2024-02-26T02:04:39;14.40;;;5.57;;
37305;SDS011;23193;42.656;21.170;2024-02-26T02:07:06;8.90;;;4.93;;
37305;SDS011;23193;42.656;21.170;2024-02-26T02:09:34;9.02;;;4.75;;
37305;SDS011;23193;42.656;21.170;2024-02-26T02:12:01;12.55;;;5.03;;
37305;SDS011;23193;42.656;21.170;2024-02-26T02:14:29;10.63;;;5.00;;
37305;SDS011;23193;42.656;21.170;2024-02-26T02:16:56;10.88;;;5.05;;
37305;SDS011;23193;42.656;21.170;2024-02-26T02:19:23;11.75;;;4.28;;
37305;SDS011;23193;42.656;21.170;2024-02-26T02:21:50;8.13;;;4.25;;
37305;SDS011;23193;42.656;21.170;2024-02-26T02:24:17;11.02;;;5.82;;
37305;SDS011;23193;42.656;21.170;2024-02-26T02:26:44;11.45;;;4.32;;
37305;SDS011;23193;42.656;21.170;2024-02-26T02:29:11;7.82;;;4.50;;
37305;SDS011;23193;42.656;21.170;2024-02-26T02:31:39;10.02;;;4.90;;
37305;SDS011;23193;42.656;21.170;2024-02-26T02:34:07;9.40;;;4.57;;
37305;SDS011;23193;42.656;21.170;2024-02-26T02:36:35;6.78;;;4.30;;
37305;SDS011;23193;42.656;21.170;2024-02-26T02:39:02;8.50;;;4.43;;
37305;SDS011;23193;42.656;21.170;2024-02-26T02:41:30;6.47;;;3.63;;
37305;SDS011;23193;42.656;21.170;2024-02-26T02:43:57;9.00;;;3.95;;
37305;SDS011;23193;42.656;21.170;2024-02-26T02:46:24;10.35;;;5.15;;
37305;SDS011;23193;42.656;21.170;2024-02-26T02:48:51;8.68;;;4.40;;
37305;SDS011;23193;42.656;21.170;2024-02-26T02:51:18;12.27;;;4.15;;
37305;SDS011;23193;42.656;21.170;2024-02-26T02:53:45;9.13;;;4.53;;
37305;SDS011;23193;42.656;21.170;2024-02-26T02:56:13;8.93;;;4.38;;
37305;SDS011;23193;42.656;21.170;2024-02-26T02:58:40;10.02;;;4.38;;
37305;SDS011;23193;42.656;21.170;2024-02-26T03:01:07;12.60;;;5.22;;
37305;SDS011;23193;42.656;21.170;2024-02-26T03:03:34;10.85;;;3.58;;
37305;SDS011;23193;42.656;21.170;2024-02-26T03:06:03;10.77;;;4.75;;
37305;SDS011;23193;42.656;21.170;2024-02-26T03:08:30;9.48;;;3.92;;
37305;SDS011;23193;42.656;21.170;2024-02-26T03:10:58;10.35;;;4.82;;
37305;SDS011;23193;42.656;21.170;2024-02-26T03:13:25;8.27;;;3.67;;
37305;SDS011;23193;42.656;21.170;2024-02-26T03:15:53;9.90;;;3.75;;
37305;SDS011;23193;42.656;21.170;2024-02-26T03:18:20;9.10;;;4.78;;
37305;SDS011;23193;42.656;21.170;2024-02-26T03:20:47;9.55;;;3.53;;
37305;SDS011;23193;42.656;21.170;2024-02-26T03:23:14;13.57;;;4.78;;
37305;SDS011;23193;42.656;21.170;2024-02-26T03:25:44;12.98;;;3.78;;
37305;SDS011;23193;42.656;21.170;2024-02-26T03:28:13;14.75;;;3.92;;
37305;SDS011;23193;42.656;21.170;2024-02-26T03:30:40;10.10;;;3.40;;
37305;SDS011;23193;42.656;21.170;2024-02-26T03:33:07;7.00;;;3.88;;
37305;SDS011;23193;42.656;21.170;2024-02-26T03:35:34;9.93;;;4.63;;
37305;SDS011;23193;42.656;21.170;2024-02-26T03:38:01;11.85;;;4.75;;
37305;SDS011;23193;42.656;21.170;2024-02-26T03:40:29;7.00;;;4.53;;
37305;SDS011;23193;42.656;21.170;2024-02-26T03:51:20;9.48;;;4.20;;
37305;SDS011;23193;42.656;21.170;2024-02-26T03:53:48;9.60;;;3.50;;
37305;SDS011;23193;42.656;21.170;2024-02-26T03:56:15;8.98;;;4.25;;
37305;SDS011;23193;42.656;21.170;2024-02-26T03:58:42;7.82;;;3.92;;
37305;SDS011;23193;42.656;21.170;2024-02-26T04:01:09;10.95;;;3.63;;
37305;SDS011;23193;42.656;21.170;2024-02-26T04:03:37;11.75;;;4.07;;
37305;SDS011;23193;42.656;21.170;2024-02-26T04:06:04;7.53;;;3.35;;
37305;SDS011;23193;42.656;21.170;2024-02-26T04:08:31;9.73;;;4.15;;
37305;SDS011;23193;42.656;21.170;2024-02-26T04:10:58;5.55;;;3.35;;
37305;SDS011;23193;42.656;21.170;2024-02-26T04:13:25;8.93;;;3.08;;
37305;SDS011;23193;42.656;21.170;2024-02-26T04:15:52;8.15;;;3.85;;
37305;SDS011;23193;42.656;21.170;2024-02-26T04:18:19;5.75;;;2.97;;
37305;SDS011;23193;42.656;21.170;2024-02-26T04:20:47;5.72;;;3.45;;
37305;SDS011;23193;42.656;21.170;2024-02-26T04:23:14;10.43;;;4.47;;
37305;SDS011;23193;42.656;21.170;2024-02-26T04:25:41;9.05;;;5.03;;
37305;SDS011;23193;42.656;21.170;2024-02-26T04:28:08;5.15;;;2.63;;
37305;SDS011;23193;42.656;21.170;2024-02-26T04:30:35;9.98;;;3.47;;
37305;SDS011;23193;42.656;21.170;2024-02-26T04:33:02;9.20;;;3.33;;
37305;SDS011;23193;42.656;21.170;2024-02-26T04:35:30;9.30;;;3.67;;
37305;SDS011;23193;42.656;21.170;2024-02-26T04:37:57;6.18;;;3.35;;
37305;SDS011;23193;42.656;21.170;2024-02-26T04:40:24;5.68;;;2.90;;
37305;SDS011;23193;42.656;21.170;2024-02-26T04:42:51;13.77;;;3.50;;
37305;SDS011;23193;42.656;21.170;2024-02-26T04:45:18;7.07;;;2.75;;
37305;SDS011;23193;42.656;21.170;2024-02-26T04:47:45;7.72;;;3.53;;
37305;SDS011;23193;42.656;21.170;2024-02-26T04:50:13;8.93;;;3.35;;
37305;SDS011;23193;42.656;21.170;2024-02-26T04:52:41;10.43;;;3.10;;
37305;SDS011;23193;42.656;21.170;2024-02-26T04:55:08;8.57;;;3.40;;
37305;SDS011;23193;42.656;21.170;2024-02-26T04:57:35;11.38;;;3.42;;
37305;SDS011;23193;42.656;21.170;2024-02-26T05:00:03;9.40;;;3.75;;
37305;SDS011;23193;42.656;21.170;2024-02-26T05:02:31;10.50;;;4.07;;
37305;SDS011;23193;42.656;21.170;2024-02-26T05:05:00;7.43;;;3.22;;
37305;SDS011;23193;42.656;21.170;2024-02-26T05:07:27;7.40;;;3.30;;
37305;SDS011;23193;42.656;21.170;2024-02-26T05:09:54;7.20;;;3.50;;
37305;SDS011;23193;42.656;21.170;2024-02-26T05:12:22;12.85;;;3.83;;
37305;SDS011;23193;42.656;21.170;2024-02-26T05:14:49;10.15;;;3.67;;
37305;SDS011;23193;42.656;21.170;2024-02-26T05:17:16;10.38;;;4.80;;
37305;SDS011;23193;42.656;21.170;2024-02-26T05:19:44;12.23;;;4.22;;
37305;SDS011;23193;42.656;21.170;2024-02-26T05:22:11;13.02;;;4.15;;
37305;SDS011;23193;42.656;21.170;2024-02-26T05:24:39;12.18;;;3.58;;
37305;SDS011;23193;42.656;21.170;2024-02-26T05:27:06;11.18;;;3.80;;
37305;SDS011;23193;42.656;21.170;2024-02-26T05:29:33;7.88;;;3.35;;
37305;SDS011;23193;42.656;21.170;2024-02-26T05:32:00;6.05;;;3.20;;
37305;SDS011;23193;42.656;21.170;2024-02-26T05:34:27;11.32;;;3.90;;
37305;SDS011;23193;42.656;21.170;2024-02-26T05:36:57;7.55;;;3.17;;
37305;SDS011;23193;42.656;21.170;2024-02-26T05:39:24;9.60;;;3.40;;
37305;SDS011;23193;42.656;21.170;2024-02-26T05:41:51;7.25;;;3.33;;
37305;SDS011;23193;42.656;21.170;2024-02-26T05:44:18;10.52;;;3.63;;
37305;SDS011;23193;42.656;21.170;2024-02-26T05:46:45;15.75;;;3.88;;
37305;SDS011;23193;42.656;21.170;2024-02-26T05:49:12;11.43;;;3.72;;
37305;SDS011;23193;42.656;21.170;2024-02-26T05:51:40;6.38;;;3.20;;
37305;SDS011;23193;42.656;21.170;2024-02-26T05:54:07;9.85;;;4.00;;
37305;SDS011;23193;42.656;21.170;2024-02-26T05:56:35;14.02;;;4.30;;
37305;SDS011;23193;42.656;21.170;2024-02-26T05:59:02;15.85;;;3.97;;
37305;SDS011;23193;42.656;21.170;2024-02-26T06:01:30;8.05;;;3.38;;
37305;SDS011;23193;42.656;21.170;2024-02-26T06:03:57;8.32;;;3.28;;
37305;SDS011;23193;42.656;21.170;2024-02-26T06:06:24;10.68;;;3.50;;
37305;SDS011;23193;42.656;21.170;2024-02-26T06:08:51;8.70;;;3.50;;
37305;SDS011;23193;42.656;21.170;2024-02-26T06:11:18;13.38;;;3.60;;
37305;SDS011;23193;42.656;21.170;2024-02-26T06:13:46;11.93;;;3.38;;
37305;SDS011;23193;42.656;21.170;2024-02-26T06:16:13;10.13;;;3.60;;
37305;SDS011;23193;42.656;21.170;2024-02-26T06:18:40;10.85;;;3.28;;
37305;SDS011;23193;42.656;21.170;2024-02-26T06:21:10;12.77;;;3.65;;
37305;SDS011;23193;42.656;21.170;2024-02-26T06:23:38;15.38;;;3.90;;
37305;SDS011;23193;42.656;21.170;2024-02-26T06:26:05;9.88;;;3.25;;
37305;SDS011;23193;42.656;21.170;2024-02-26T06:28:32;8.98;;;3.35;;
37305;SDS011;23193;42.656;21.170;2024-02-26T06:31:02;9.05;;;3.30;;
37305;SDS011;23193;42.656;21.170;2024-02-26T06:33:30;12.95;;;4.32;;
37305;SDS011;23193;42.656;21.170;2024-02-26T06:35:57;11.95;;;3.50;;
37305;SDS011;23193;42.656;21.170;2024-02-26T06:38:24;14.23;;;3.30;;
37305;SDS011;23193;42.656;21.170;2024-02-26T06:40:52;9.60;;;2.75;;
37305;SDS011;23193;42.656;21.170;2024-02-26T06:43:19;8.88;;;2.90;;
37305;SDS011;23193;42.656;21.170;2024-02-26T06:45:46;17.83;;;3.95;;
37305;SDS011;23193;42.656;21.170;2024-02-26T06:48:13;15.25;;;2.95;;
37305;SDS011;23193;42.656;21.170;2024-02-26T06:50:40;11.38;;;3.30;;
37305;SDS011;23193;42.656;21.170;2024-02-26T06:53:08;9.95;;;3.28;;
37305;SDS011;23193;42.656;21.170;2024-02-26T06:55:35;12.35;;;3.75;;
37305;SDS011;23193;42.656;21.170;2024-02-26T06:58:04;19.52;;;3.28;;
37305;SDS011;23193;42.656;21.170;2024-02-26T07:00:31;9.63;;;3.85;;
37305;SDS011;23193;42.656;21.170;2024-02-26T07:02:58;11.73;;;3.47;;
37305;SDS011;23193;42.656;21.170;2024-02-26T07:05:26;15.15;;;4.15;;
37305;SDS011;23193;42.656;21.170;2024-02-26T07:07:53;7.82;;;3.65;;
37305;SDS011;23193;42.656;21.170;2024-02-26T07:10:20;16.20;;;4.43;;
37305;SDS011;23193;42.656;21.170;2024-02-26T07:12:48;13.52;;;3.85;;
37305;SDS011;23193;42.656;21.170;2024-02-26T07:15:15;11.65;;;3.90;;
37305;SDS011;23193;42.656;21.170;2024-02-26T07:17:42;10.98;;;3.90;;
37305;SDS011;23193;42.656;21.170;2024-02-26T07:20:14;10.88;;;3.13;;
37305;SDS011;23193;42.656;21.170;2024-02-26T07:22:41;12.82;;;3.20;;
37305;SDS011;23193;42.656;21.170;2024-02-26T07:25:11;12.07;;;3.80;;
37305;SDS011;23193;42.656;21.170;2024-02-26T07:27:40;7.22;;;3.10;;
37305;SDS011;23193;42.656;21.170;2024-02-26T07:30:07;17.20;;;3.22;;
37305;SDS011;23193;42.656;21.170;2024-02-26T07:32:37;8.35;;;2.70;;
37305;SDS011;23193;42.656;21.170;2024-02-26T07:35:04;7.80;;;2.78;;
37305;SDS011;23193;42.656;21.170;2024-02-26T07:37:32;16.27;;;4.65;;
37305;SDS011;23193;42.656;21.170;2024-02-26T07:39:59;17.13;;;4.55;;
37305;SDS011;23193;42.656;21.170;2024-02-26T07:42:27;15.82;;;3.60;;
37305;SDS011;23193;42.656;21.170;2024-02-26T07:44:54;14.52;;;4.70;;
37305;SDS011;23193;42.656;21.170;2024-02-26T07:47:21;10.13;;;2.95;;
37305;SDS011;23193;42.656;21.170;2024-02-26T07:49:48;7.25;;;3.45;;
37305;SDS011;23193;42.656;21.170;2024-02-26T07:52:15;11.25;;;2.55;;
37305;SDS011;23193;42.656;21.170;2024-02-26T07:54:43;11.77;;;2.53;;
37305;SDS011;23193;42.656;21.170;2024-02-26T07:57:10;8.52;;;2.60;;
37305;SDS011;23193;42.656;21.170;2024-02-26T07:59:38;9.05;;;2.53;;
37305;SDS011;23193;42.656;21.170;2024-02-26T08:02:07;6.93;;;2.20;;
37305;SDS011;23193;42.656;21.170;2024-02-26T08:04:34;4.20;;;1.85;;
37305;SDS011;23193;42.656;21.170;2024-02-26T08:07:01;11.38;;;2.92;;
37305;SDS011;23193;42.656;21.170;2024-02-26T08:09:29;21.27;;;6.80;;
37305;SDS011;23193;42.656;21.170;2024-02-26T08:11:56;7.57;;;3.75;;
37305;SDS011;23193;42.656;21.170;2024-02-26T08:14:23;15.85;;;3.30;;
37305;SDS011;23193;42.656;21.170;2024-02-26T08:16:50;9.30;;;2.20;;
37305;SDS011;23193;42.656;21.170;2024-02-26T08:19:17;12.57;;;2.60;;
37305;SDS011;23193;42.656;21.170;2024-02-26T08:21:45;13.25;;;3.63;;
37305;SDS011;23193;42.656;21.170;2024-02-26T08:24:12;15.93;;;3.53;;
37305;SDS011;23193;42.656;21.170;2024-02-26T08:26:40;17.25;;;3.33;;
37305;SDS011;23193;42.656;21.170;2024-02-26T08:29:07;7.47;;;2.80;;
37305;SDS011;23193;42.656;21.170;2024-02-26T08:31:34;7.25;;;2.03;;
37305;SDS011;23193;42.656;21.170;2024-02-26T08:34:04;10.60;;;2.42;;
37305;SDS011;23193;42.656;21.170;2024-02-26T08:36:32;12.75;;;2.33;;
37305;SDS011;23193;42.656;21.170;2024-02-26T08:39:00;12.65;;;2.88;;
37305;SDS011;23193;42.656;21.170;2024-02-26T08:41:27;16.83;;;2.55;;
37305;SDS011;23193;42.656;21.170;2024-02-26T08:43:54;5.75;;;1.75;;
37305;SDS011;23193;42.656;21.170;2024-02-26T08:46:22;12.95;;;3.00;;
37305;SDS011;23193;42.656;21.170;2024-02-26T08:48:49;15.90;;;2.35;;
37305;SDS011;23193;42.656;21.170;2024-02-26T08:51:16;10.02;;;2.20;;
37305;SDS011;23193;42.656;21.170;2024-02-26T08:53:43;7.22;;;2.70;;
37305;SDS011;23193;42.656;21.170;2024-02-26T08:56:11;10.50;;;2.25;;
37305;SDS011;23193;42.656;21.170;2024-02-26T08:58:44;10.40;;;3.20;;
37305;SDS011;23193;42.656;21.170;2024-02-26T09:01:13;9.57;;;3.53;;
37305;SDS011;23193;42.656;21.170;2024-02-26T09:03:40;10.88;;;2.85;;
37305;SDS011;23193;42.656;21.170;2024-02-26T09:06:07;14.13;;;2.45;;
37305;SDS011;23193;42.656;21.170;2024-02-26T09:08:35;7.30;;;2.47;;
37305;SDS011;23193;42.656;21.170;2024-02-26T09:11:04;7.68;;;2.13;;
37305;SDS011;23193;42.656;21.170;2024-02-26T09:13:31;12.80;;;3.15;;
37305;SDS011;23193;42.656;21.170;2024-02-26T09:15:59;13.35;;;2.33;;
37305;SDS011;23193;42.656;21.170;2024-02-26T09:18:26;7.47;;;2.50;;
37305;SDS011;23193;42.656;21.170;2024-02-26T09:20:56;15.52;;;2.70;;
37305;SDS011;23193;42.656;21.170;2024-02-26T09:23:23;9.38;;;2.10;;
37305;SDS011;23193;42.656;21.170;2024-02-26T09:25:50;6.70;;;2.13;;
37305;SDS011;23193;42.656;21.170;2024-02-26T09:28:17;11.60;;;2.05;;
37305;SDS011;23193;42.656;21.170;2024-02-26T09:30:44;7.07;;;2.40;;
37305;SDS011;23193;42.656;21.170;2024-02-26T09:33:13;10.90;;;2.60;;
37305;SDS011;23193;42.656;21.170;2024-02-26T09:35:41;12.23;;;2.33;;
37305;SDS011;23193;42.656;21.170;2024-02-26T09:38:08;9.40;;;2.33;;
37305;SDS011;23193;42.656;21.170;2024-02-26T09:40:35;5.93;;;2.30;;
37305;SDS011;23193;42.656;21.170;2024-02-26T09:43:04;9.90;;;2.80;;
37305;SDS011;23193;42.656;21.170;2024-02-26T09:45:32;12.40;;;2.72;;
37305;SDS011;23193;42.656;21.170;2024-02-26T09:48:00;9.52;;;2.80;;
37305;SDS011;23193;42.656;21.170;2024-02-26T09:50:27;5.07;;;2.42;;
37305;SDS011;23193;42.656;21.170;2024-02-26T09:52:54;9.90;;;2.35;;
37305;SDS011;23193;42.656;21.170;2024-02-26T09:55:22;11.35;;;2.90;;
37305;SDS011;23193;42.656;21.170;2024-02-26T09:57:49;14.70;;;3.17;;
37305;SDS011;23193;42.656;21.170;2024-02-26T10:00:17;21.20;;;3.05;;
37305;SDS011;23193;42.656;21.170;2024-02-26T10:05:18;14.23;;;2.58;;
37305;SDS011;23193;42.656;21.170;2024-02-26T10:07:49;6.35;;;2.75;;
37305;SDS011;23193;42.656;21.170;2024-02-26T10:10:17;12.13;;;3.50;;
37305;SDS011;23193;42.656;21.170;2024-02-26T10:12:44;9.73;;;3.70;;
37305;SDS011;23193;42.656;21.170;2024-02-26T10:15:12;7.03;;;3.00;;
37305;SDS011;23193;42.656;21.170;2024-02-26T10:17:39;16.83;;;2.53;;
37305;SDS011;23193;42.656;21.170;2024-02-26T10:20:12;11.15;;;2.58;;
37305;SDS011;23193;42.656;21.170;2024-02-26T10:22:42;9.82;;;2.38;;
37305;SDS011;23193;42.656;21.170;2024-02-26T10:25:09;16.83;;;2.30;;
37305;SDS011;23193;42.656;21.170;2024-02-26T10:27:36;8.77;;;2.47;;
37305;SDS011;23193;42.656;21.170;2024-02-26T10:30:03;8.40;;;1.77;;
37305;SDS011;23193;42.656;21.170;2024-02-26T10:32:32;12.60;;;2.22;;
37305;SDS011;23193;42.656;21.170;2024-02-26T10:34:59;8.88;;;2.88;;
37305;SDS011;23193;42.656;21.170;2024-02-26T10:37:26;12.07;;;2.15;;
37305;SDS011;23193;42.656;21.170;2024-02-26T10:39:56;10.85;;;2.42;;
37305;SDS011;23193;42.656;21.170;2024-02-26T10:42:23;10.65;;;3.67;;
37305;SDS011;23193;42.656;21.170;2024-02-26T10:44:50;10.27;;;3.35;;
37305;SDS011;23193;42.656;21.170;2024-02-26T10:47:17;12.82;;;3.53;;
37305;SDS011;23193;42.656;21.170;2024-02-26T10:49:45;15.95;;;4.70;;
37305;SDS011;23193;42.656;21.170;2024-02-26T10:52:12;18.48;;;7.43;;
37305;SDS011;23193;42.656;21.170;2024-02-26T10:54:41;12.45;;;3.17;;
37305;SDS011;23193;42.656;21.170;2024-02-26T10:57:09;24.83;;;10.35;;
37305;SDS011;23193;42.656;21.170;2024-02-26T10:59:36;10.95;;;3.65;;
37305;SDS011;23193;42.656;21.170;2024-02-26T11:02:03;9.50;;;2.67;;
37305;SDS011;23193;42.656;21.170;2024-02-26T11:04:30;12.35;;;2.88;;
37305;SDS011;23193;42.656;21.170;2024-02-26T11:06:58;10.48;;;4.03;;
37305;SDS011;23193;42.656;21.170;2024-02-26T11:09:25;16.45;;;4.45;;
37305;SDS011;23193;42.656;21.170;2024-02-26T11:11:53;14.05;;;3.75;;
37305;SDS011;23193;42.656;21.170;2024-02-26T11:14:22;15.10;;;3.58;;
37305;SDS011;23193;42.656;21.170;2024-02-26T11:16:53;15.60;;;3.78;;
37305;SDS011;23193;42.656;21.170;2024-02-26T11:19:21;9.90;;;4.00;;
37305;SDS011;23193;42.656;21.170;2024-02-26T11:21:49;10.98;;;3.15;;
37305;SDS011;23193;42.656;21.170;2024-02-26T11:24:16;14.75;;;3.92;;
37305;SDS011;23193;42.656;21.170;2024-02-26T11:26:55;12.38;;;4.07;;
37305;SDS011;23193;42.656;21.170;2024-02-26T11:29:29;11.23;;;2.35;;
37305;SDS011;23193;42.656;21.170;2024-02-26T11:31:57;28.02;;;2.92;;
37305;SDS011;23193;42.656;21.170;2024-02-26T11:34:25;9.52;;;2.53;;
37305;SDS011;23193;42.656;21.170;2024-02-26T11:36:53;5.18;;;2.13;;
37305;SDS011;23193;42.656;21.170;2024-02-26T11:39:20;7.25;;;2.55;;
37305;SDS011;23193;42.656;21.170;2024-02-26T11:41:47;13.50;;;3.38;;
37305;SDS011;23193;42.656;21.170;2024-02-26T11:44:14;11.30;;;2.72;;
37305;SDS011;23193;42.656;21.170;2024-02-26T11:46:56;16.40;;;2.75;;
37305;SDS011;23193;42.656;21.170;2024-02-26T11:51:54;16.40;;;2.33;;
37305;SDS011;23193;42.656;21.170;2024-02-26T11:54:44;16.13;;;2.50;;
37305;SDS011;23193;42.656;21.170;2024-02-26T11:57:21;10.13;;;2.53;;
37305;SDS011;23193;42.656;21.170;2024-02-26T11:59:49;11.77;;;2.67;;
37305;SDS011;23193;42.656;21.170;2024-02-26T12:05:08;9.93;;;2.83;;
37305;SDS011;23193;42.656;21.170;2024-02-26T12:07:36;11.32;;;2.60;;
37305;SDS011;23193;42.656;21.170;2024-02-26T12:10:13;43.83;;;4.93;;
37305;SDS011;23193;42.656;21.170;2024-02-26T12:12:42;17.50;;;2.38;;
37305;SDS011;23193;42.656;21.170;2024-02-26T12:15:09;14.20;;;2.80;;
37305;SDS011;23193;42.656;21.170;2024-02-26T12:17:38;10.75;;;2.22;;
37305;SDS011;23193;42.656;21.170;2024-02-26T12:20:08;26.02;;;10.02;;
37305;SDS011;23193;42.656;21.170;2024-02-26T12:22:38;14.50;;;2.78;;
37305;SDS011;23193;42.656;21.170;2024-02-26T12:25:08;12.57;;;2.65;;
37305;SDS011;23193;42.656;21.170;2024-02-26T12:27:36;31.37;;;3.53;;
37305;SDS011;23193;42.656;21.170;2024-02-26T12:30:03;34.33;;;3.83;;
37305;SDS011;23193;42.656;21.170;2024-02-26T12:32:30;15.00;;;2.10;;
37305;SDS011;23193;42.656;21.170;2024-02-26T12:34:58;18.70;;;2.70;;
37305;SDS011;23193;42.656;21.170;2024-02-26T12:37:25;9.63;;;2.30;;
37305;SDS011;23193;42.656;21.170;2024-02-26T12:39:52;7.25;;;2.10;;
37305;SDS011;23193;42.656;21.170;2024-02-26T12:42:19;12.00;;;3.17;;
37305;SDS011;23193;42.656;21.170;2024-02-26T12:44:47;20.58;;;2.67;;
37305;SDS011;23193;42.656;21.170;2024-02-26T12:47:14;10.10;;;2.70;;
37305;SDS011;23193;42.656;21.170;2024-02-26T12:49:43;6.75;;;2.45;;
37305;SDS011;23193;42.656;21.170;2024-02-26T12:52:13;9.18;;;2.45;;
37305;SDS011;23193;42.656;21.170;2024-02-26T12:54:40;12.88;;;2.40;;
37305;SDS011;23193;42.656;21.170;2024-02-26T12:57:09;13.93;;;3.60;;
37305;SDS011;23193;42.656;21.170;2024-02-26T12:59:36;18.42;;;2.78;;
37305;SDS011;23193;42.656;21.170;2024-02-26T13:02:04;6.25;;;2.30;;
37305;SDS011;23193;42.656;21.170;2024-02-26T13:04:34;14.63;;;3.07;;
37305;SDS011;23193;42.656;21.170;2024-02-26T13:07:03;16.00;;;3.28;;
37305;SDS011;23193;42.656;21.170;2024-02-26T13:09:32;8.85;;;2.53;;
37305;SDS011;23193;42.656;21.170;2024-02-26T13:12:04;19.63;;;3.35;;
37305;SDS011;23193;42.656;21.170;2024-02-26T13:14:33;12.52;;;2.38;;
37305;SDS011;23193;42.656;21.170;2024-02-26T13:17:03;8.98;;;3.95;;
37305;SDS011;23193;42.656;21.170;2024-02-26T13:19:30;8.10;;;3.10;;
37305;SDS011;23193;42.656;21.170;2024-02-26T13:22:07;12.00;;;3.03;;
37305;SDS011;23193;42.656;21.170;2024-02-26T13:24:35;14.30;;;2.58;;
37305;SDS011;23193;42.656;21.170;2024-02-26T13:27:02;10.38;;;2.95;;
37305;SDS011;23193;42.656;21.170;2024-02-26T13:29:32;12.88;;;3.55;;
37305;SDS011;23193;42.656;21.170;2024-02-26T13:31:59;9.23;;;3.13;;
37305;SDS011;23193;42.656;21.170;2024-02-26T13:34:26;11.13;;;3.60;;
37305;SDS011;23193;42.656;21.170;2024-02-26T13:36:54;13.18;;;3.40;;
37305;SDS011;23193;42.656;21.170;2024-02-26T13:39:22;15.77;;;3.38;;
37305;SDS011;23193;42.656;21.170;2024-02-26T13:41:51;9.68;;;4.13;;
37305;SDS011;23193;42.656;21.170;2024-02-26T13:44:21;28.17;;;4.80;;
37305;SDS011;23193;42.656;21.170;2024-02-26T13:46:48;10.60;;;3.60;;
37305;SDS011;23193;42.656;21.170;2024-02-26T13:49:16;16.92;;;4.03;;
37305;SDS011;23193;42.656;21.170;2024-02-26T13:51:43;10.48;;;3.00;;
37305;SDS011;23193;42.656;21.170;2024-02-26T13:54:11;13.95;;;5.50;;
37305;SDS011;23193;42.656;21.170;2024-02-26T13:56:38;18.75;;;6.25;;
37305;SDS011;23193;42.656;21.170;2024-02-26T13:59:05;23.90;;;7.38;;
37305;SDS011;23193;42.656;21.170;2024-02-26T14:01:32;13.55;;;4.80;;
37305;SDS011;23193;42.656;21.170;2024-02-26T14:04:00;16.98;;;3.55;;
37305;SDS011;23193;42.656;21.170;2024-02-26T14:06:29;13.90;;;3.97;;
37305;SDS011;23193;42.656;21.170;2024-02-26T14:08:58;10.77;;;4.03;;
37305;SDS011;23193;42.656;21.170;2024-02-26T14:11:26;12.88;;;4.05;;
37305;SDS011;23193;42.656;21.170;2024-02-26T14:13:56;16.90;;;3.97;;
37305;SDS011;23193;42.656;21.170;2024-02-26T14:16:23;10.00;;;2.85;;
37305;SDS011;23193;42.656;21.170;2024-02-26T14:18:50;12.43;;;3.05;;
37305;SDS011;23193;42.656;21.170;2024-02-26T14:21:17;9.13;;;2.90;;
37305;SDS011;23193;42.656;21.170;2024-02-26T14:23:44;10.38;;;3.42;;
37305;SDS011;23193;42.656;21.170;2024-02-26T14:26:12;13.07;;;4.03;;
37305;SDS011;23193;42.656;21.170;2024-02-26T14:28:39;9.88;;;4.20;;
37305;SDS011;23193;42.656;21.170;2024-02-26T14:31:06;20.10;;;3.85;;
37305;SDS011;23193;42.656;21.170;2024-02-26T14:33:39;10.93;;;4.47;;
37305;SDS011;23193;42.656;21.170;2024-02-26T14:36:09;20.05;;;4.68;;
37305;SDS011;23193;42.656;21.170;2024-02-26T14:38:36;23.70;;;4.63;;
37305;SDS011;23193;42.656;21.170;2024-02-26T14:41:03;12.90;;;5.45;;
37305;SDS011;23193;42.656;21.170;2024-02-26T14:43:31;23.65;;;8.18;;
37305;SDS011;23193;42.656;21.170;2024-02-26T14:45:59;20.25;;;4.95;;